sensor_id;sensor_type;location;lat;lon;timestamp;P1;durP1;ratioP1;P2;durP2;ratioP2
65936;SDS011;52707;52.086;5.418;2023-02-27T00:00:05;16.02;;;4.85;;
65936;SDS011;52707;52.086;5.418;2023-02-27T00:02:32;16.88;;;5.35;;
65936;SDS011;52707;52.086;5.418;2023-02-27T00:04:58;15.32;;;5.32;;
65936;SDS011;52707;52.086;5.418;2023-02-27T00:07:25;11.68;;;4.90;;
65936;SDS011;52707;52.086;5.418;2023-02-27T00:09:53;9.73;;;4.60;;
65936;SDS011;52707;52.086;5.418;2023-02-27T00:12:20;11.52;;;4.68;;
65936;SDS011;52707;52.086;5.418;2023-02-27T00:14:46;18.27;;;5.55;;
65936;SDS011;52707;52.086;5.418;2023-02-27T00:17:12;13.57;;;4.55;;
65936;SDS011;52707;52.086;5.418;2023-02-27T00:19:38;12.65;;;4.72;;
65936;SDS011;52707;52.086;5.418;2023-02-27T00:22:05;10.65;;;4.00;;
65936;SDS011;52707;52.086;5.418;2023-02-27T00:24:31;12.88;;;4.47;;
65936;SDS011;52707;52.086;5.418;2023-02-27T00:26:57;10.18;;;4.07;;
65936;SDS011;52707;52.086;5.418;2023-02-27T00:29:23;11.05;;;3.83;;
65936;SDS011;52707;52.086;5.418;2023-02-27T00:31:50;8.80;;;3.90;;
65936;SDS011;52707;52.086;5.418;2023-02-27T00:34:16;13.63;;;5.93;;
65936;SDS011;52707;52.086;5.418;2023-02-27T00:36:43;12.13;;;4.57;;
65936;SDS011;52707;52.086;5.418;2023-02-27T00:39:09;7.18;;;4.80;;
65936;SDS011;52707;52.086;5.418;2023-02-27T00:41:35;11.85;;;3.97;;
65936;SDS011;52707;52.086;5.418;2023-02-27T00:44:02;12.38;;;3.78;;
65936;SDS011;52707;52.086;5.418;2023-02-27T00:46:28;12.23;;;4.28;;
65936;SDS011;52707;52.086;5.418;2023-02-27T00:48:54;9.95;;;4.28;;
65936;SDS011;52707;52.086;5.418;2023-02-27T00:51:21;13.45;;;4.50;;
65936;SDS011;52707;52.086;5.418;2023-02-27T00:53:47;11.80;;;4.15;;
65936;SDS011;52707;52.086;5.418;2023-02-27T00:56:14;15.35;;;4.47;;
65936;SDS011;52707;52.086;5.418;2023-02-27T00:58:40;12.35;;;4.28;;
65936;SDS011;52707;52.086;5.418;2023-02-27T01:01:06;15.25;;;4.88;;
65936;SDS011;52707;52.086;5.418;2023-02-27T01:03:33;10.20;;;3.90;;
65936;SDS011;52707;52.086;5.418;2023-02-27T01:05:59;8.63;;;4.00;;
65936;SDS011;52707;52.086;5.418;2023-02-27T01:08:25;8.57;;;4.22;;
65936;SDS011;52707;52.086;5.418;2023-02-27T01:10:55;13.38;;;4.47;;
65936;SDS011;52707;52.086;5.418;2023-02-27T01:13:22;7.50;;;3.88;;
65936;SDS011;52707;52.086;5.418;2023-02-27T01:15:48;13.75;;;4.50;;
65936;SDS011;52707;52.086;5.418;2023-02-27T01:18:14;9.25;;;4.05;;
65936;SDS011;52707;52.086;5.418;2023-02-27T01:20:41;12.05;;;4.43;;
65936;SDS011;52707;52.086;5.418;2023-02-27T01:23:07;13.93;;;4.20;;
65936;SDS011;52707;52.086;5.418;2023-02-27T01:25:33;11.57;;;4.07;;
65936;SDS011;52707;52.086;5.418;2023-02-27T01:28:00;10.52;;;4.20;;
65936;SDS011;52707;52.086;5.418;2023-02-27T01:30:26;15.23;;;4.57;;
65936;SDS011;52707;52.086;5.418;2023-02-27T01:32:52;14.27;;;4.53;;
65936;SDS011;52707;52.086;5.418;2023-02-27T01:35:19;13.50;;;4.18;;
65936;SDS011;52707;52.086;5.418;2023-02-27T01:37:45;9.32;;;4.03;;
65936;SDS011;52707;52.086;5.418;2023-02-27T01:40:11;7.85;;;3.70;;
65936;SDS011;52707;52.086;5.418;2023-02-27T01:42:38;11.07;;;3.75;;
65936;SDS011;52707;52.086;5.418;2023-02-27T01:47:37;11.48;;;4.00;;
65936;SDS011;52707;52.086;5.418;2023-02-27T01:50:05;9.05;;;4.15;;
65936;SDS011;52707;52.086;5.418;2023-02-27T01:52:31;10.48;;;3.88;;
65936;SDS011;52707;52.086;5.418;2023-02-27T01:54:59;7.35;;;3.50;;
65936;SDS011;52707;52.086;5.418;2023-02-27T01:57:25;7.28;;;3.40;;
65936;SDS011;52707;52.086;5.418;2023-02-27T01:59:52;10.23;;;3.28;;
65936;SDS011;52707;52.086;5.418;2023-02-27T02:02:20;8.20;;;3.72;;
65936;SDS011;52707;52.086;5.418;2023-02-27T02:04:48;17.70;;;4.25;;
65936;SDS011;52707;52.086;5.418;2023-02-27T02:07:16;7.63;;;3.58;;
65936;SDS011;52707;52.086;5.418;2023-02-27T02:09:44;16.05;;;4.18;;
65936;SDS011;52707;52.086;5.418;2023-02-27T02:12:12;11.77;;;3.83;;
65936;SDS011;52707;52.086;5.418;2023-02-27T02:14:39;8.82;;;3.85;;
65936;SDS011;52707;52.086;5.418;2023-02-27T02:27:26;8.90;;;3.60;;
65936;SDS011;52707;52.086;5.418;2023-02-27T02:40:15;9.43;;;3.45;;
65936;SDS011;52707;52.086;5.418;2023-02-27T02:45:29;7.72;;;3.30;;
65936;SDS011;52707;52.086;5.418;2023-02-27T02:55:31;15.60;;;3.80;;
65936;SDS011;52707;52.086;5.418;2023-02-27T03:01:05;8.75;;;3.53;;
65936;SDS011;52707;52.086;5.418;2023-02-27T03:06:02;12.30;;;3.20;;
65936;SDS011;52707;52.086;5.418;2023-02-27T03:08:32;9.07;;;3.47;;
65936;SDS011;52707;52.086;5.418;2023-02-27T03:11:02;10.38;;;3.35;;
65936;SDS011;52707;52.086;5.418;2023-02-27T03:13:30;6.88;;;2.88;;
65936;SDS011;52707;52.086;5.418;2023-02-27T03:16:04;8.50;;;2.90;;
65936;SDS011;52707;52.086;5.418;2023-02-27T03:18:36;5.80;;;2.70;;
65936;SDS011;52707;52.086;5.418;2023-02-27T03:21:07;6.10;;;3.25;;
65936;SDS011;52707;52.086;5.418;2023-02-27T03:23:38;5.38;;;3.10;;
65936;SDS011;52707;52.086;5.418;2023-02-27T03:26:06;11.35;;;3.38;;
65936;SDS011;52707;52.086;5.418;2023-02-27T03:28:37;8.35;;;3.08;;
65936;SDS011;52707;52.086;5.418;2023-02-27T03:33:51;8.07;;;2.97;;
65936;SDS011;52707;52.086;5.418;2023-02-27T03:38:50;13.13;;;3.67;;
65936;SDS011;52707;52.086;5.418;2023-02-27T03:41:24;14.40;;;4.68;;
65936;SDS011;52707;52.086;5.418;2023-02-27T03:43:55;6.60;;;2.85;;
65936;SDS011;52707;52.086;5.418;2023-02-27T03:46:25;11.70;;;2.72;;
65936;SDS011;52707;52.086;5.418;2023-02-27T03:48:52;6.28;;;2.88;;
65936;SDS011;52707;52.086;5.418;2023-02-27T03:51:20;14.70;;;5.18;;
65936;SDS011;52707;52.086;5.418;2023-02-27T03:53:48;9.90;;;3.05;;
65936;SDS011;52707;52.086;5.418;2023-02-27T03:56:17;8.23;;;3.25;;
65936;SDS011;52707;52.086;5.418;2023-02-27T03:58:45;8.10;;;3.15;;
65936;SDS011;52707;52.086;5.418;2023-02-27T04:01:11;4.28;;;2.90;;
65936;SDS011;52707;52.086;5.418;2023-02-27T04:03:40;7.32;;;2.75;;
65936;SDS011;52707;52.086;5.418;2023-02-27T04:06:08;6.03;;;2.67;;
65936;SDS011;52707;52.086;5.418;2023-02-27T04:09:00;17.55;;;3.83;;
65936;SDS011;52707;52.086;5.418;2023-02-27T04:11:31;12.25;;;2.80;;
65936;SDS011;52707;52.086;5.418;2023-02-27T04:14:09;5.95;;;2.83;;
65936;SDS011;52707;52.086;5.418;2023-02-27T04:19:33;6.75;;;2.78;;
65936;SDS011;52707;52.086;5.418;2023-02-27T04:22:27;8.50;;;2.97;;
65936;SDS011;52707;52.086;5.418;2023-02-27T04:24:56;5.95;;;2.83;;
65936;SDS011;52707;52.086;5.418;2023-02-27T04:27:37;9.35;;;3.42;;
65936;SDS011;52707;52.086;5.418;2023-02-27T04:32:38;11.48;;;2.85;;
65936;SDS011;52707;52.086;5.418;2023-02-27T04:35:13;9.95;;;2.95;;
65936;SDS011;52707;52.086;5.418;2023-02-27T04:40:08;9.93;;;3.03;;
65936;SDS011;52707;52.086;5.418;2023-02-27T04:42:39;5.55;;;2.75;;
65936;SDS011;52707;52.086;5.418;2023-02-27T04:45:07;8.48;;;2.80;;
65936;SDS011;52707;52.086;5.418;2023-02-27T04:47:41;13.93;;;3.08;;
65936;SDS011;52707;52.086;5.418;2023-02-27T04:50:13;3.95;;;2.65;;
65936;SDS011;52707;52.086;5.418;2023-02-27T04:52:56;8.18;;;3.05;;
65936;SDS011;52707;52.086;5.418;2023-02-27T04:55:25;5.57;;;2.65;;
65936;SDS011;52707;52.086;5.418;2023-02-27T04:57:53;8.63;;;3.13;;
65936;SDS011;52707;52.086;5.418;2023-02-27T05:00:21;7.50;;;2.90;;
65936;SDS011;52707;52.086;5.418;2023-02-27T05:02:52;11.38;;;3.15;;
65936;SDS011;52707;52.086;5.418;2023-02-27T05:05:21;5.90;;;2.70;;
65936;SDS011;52707;52.086;5.418;2023-02-27T05:08:06;8.40;;;2.97;;
65936;SDS011;52707;52.086;5.418;2023-02-27T05:10:41;6.38;;;2.72;;
65936;SDS011;52707;52.086;5.418;2023-02-27T05:13:10;8.88;;;2.95;;
65936;SDS011;52707;52.086;5.418;2023-02-27T05:16:01;11.98;;;4.05;;
65936;SDS011;52707;52.086;5.418;2023-02-27T05:18:24;14.25;;;3.20;;
65936;SDS011;52707;52.086;5.418;2023-02-27T05:23:24;9.75;;;3.10;;
65936;SDS011;52707;52.086;5.418;2023-02-27T05:28:24;10.95;;;2.80;;
65936;SDS011;52707;52.086;5.418;2023-02-27T05:30:56;8.95;;;2.97;;
65936;SDS011;52707;52.086;5.418;2023-02-27T05:36:23;9.85;;;2.97;;
65936;SDS011;52707;52.086;5.418;2023-02-27T05:38:52;3.92;;;2.53;;
65936;SDS011;52707;52.086;5.418;2023-02-27T05:41:33;12.88;;;3.00;;
65936;SDS011;52707;52.086;5.418;2023-02-27T05:46:48;7.72;;;3.15;;
65936;SDS011;52707;52.086;5.418;2023-02-27T05:49:18;7.95;;;2.97;;
65936;SDS011;52707;52.086;5.418;2023-02-27T05:51:47;8.20;;;3.13;;
65936;SDS011;52707;52.086;5.418;2023-02-27T05:54:20;11.68;;;3.70;;
65936;SDS011;52707;52.086;5.418;2023-02-27T05:56:48;4.43;;;2.72;;
65936;SDS011;52707;52.086;5.418;2023-02-27T05:59:17;6.35;;;2.60;;
65936;SDS011;52707;52.086;5.418;2023-02-27T06:01:47;7.78;;;2.90;;
65936;SDS011;52707;52.086;5.418;2023-02-27T06:04:13;8.23;;;2.85;;
65936;SDS011;52707;52.086;5.418;2023-02-27T06:06:39;10.02;;;3.50;;
65936;SDS011;52707;52.086;5.418;2023-02-27T06:09:07;6.90;;;2.97;;
65936;SDS011;52707;52.086;5.418;2023-02-27T06:11:33;9.52;;;3.38;;
65936;SDS011;52707;52.086;5.418;2023-02-27T06:14:00;8.45;;;3.00;;
65936;SDS011;52707;52.086;5.418;2023-02-27T06:16:26;4.63;;;2.58;;
65936;SDS011;52707;52.086;5.418;2023-02-27T06:18:53;5.22;;;2.80;;
65936;SDS011;52707;52.086;5.418;2023-02-27T06:21:20;10.13;;;3.72;;
65936;SDS011;52707;52.086;5.418;2023-02-27T06:23:47;6.63;;;2.85;;
65936;SDS011;52707;52.086;5.418;2023-02-27T06:26:13;9.48;;;2.92;;
65936;SDS011;52707;52.086;5.418;2023-02-27T06:28:40;16.70;;;2.88;;
65936;SDS011;52707;52.086;5.418;2023-02-27T06:31:07;11.45;;;4.03;;
65936;SDS011;52707;52.086;5.418;2023-02-27T06:33:33;12.13;;;4.22;;
65936;SDS011;52707;52.086;5.418;2023-02-27T06:36:00;8.27;;;3.00;;
65936;SDS011;52707;52.086;5.418;2023-02-27T06:38:26;7.82;;;3.00;;
65936;SDS011;52707;52.086;5.418;2023-02-27T06:40:53;11.27;;;2.80;;
65936;SDS011;52707;52.086;5.418;2023-02-27T06:43:20;8.50;;;2.97;;
65936;SDS011;52707;52.086;5.418;2023-02-27T06:45:48;10.85;;;2.58;;
65936;SDS011;52707;52.086;5.418;2023-02-27T06:48:14;7.43;;;2.58;;
65936;SDS011;52707;52.086;5.418;2023-02-27T06:50:41;17.48;;;5.07;;
65936;SDS011;52707;52.086;5.418;2023-02-27T06:53:07;8.00;;;3.50;;
65936;SDS011;52707;52.086;5.418;2023-02-27T06:55:33;7.38;;;3.05;;
65936;SDS011;52707;52.086;5.418;2023-02-27T06:58:00;9.35;;;2.70;;
65936;SDS011;52707;52.086;5.418;2023-02-27T07:00:26;8.90;;;3.75;;
65936;SDS011;52707;52.086;5.418;2023-02-27T07:02:52;11.52;;;3.80;;
65936;SDS011;52707;52.086;5.418;2023-02-27T07:05:19;9.85;;;2.95;;
65936;SDS011;52707;52.086;5.418;2023-02-27T07:07:45;7.32;;;2.53;;
65936;SDS011;52707;52.086;5.418;2023-02-27T07:10:12;10.32;;;3.28;;
65936;SDS011;52707;52.086;5.418;2023-02-27T07:12:39;10.30;;;2.95;;
65936;SDS011;52707;52.086;5.418;2023-02-27T07:15:06;7.25;;;2.95;;
65936;SDS011;52707;52.086;5.418;2023-02-27T07:17:32;11.57;;;3.40;;
65936;SDS011;52707;52.086;5.418;2023-02-27T07:19:58;6.88;;;2.95;;
65936;SDS011;52707;52.086;5.418;2023-02-27T07:22:25;9.10;;;3.95;;
65936;SDS011;52707;52.086;5.418;2023-02-27T07:24:51;17.88;;;4.05;;
65936;SDS011;52707;52.086;5.418;2023-02-27T07:27:17;37.03;;;6.90;;
65936;SDS011;52707;52.086;5.418;2023-02-27T07:29:43;13.68;;;3.60;;
65936;SDS011;52707;52.086;5.418;2023-02-27T07:32:10;13.45;;;3.50;;
65936;SDS011;52707;52.086;5.418;2023-02-27T07:34:36;18.90;;;3.78;;
65936;SDS011;52707;52.086;5.418;2023-02-27T07:37:03;12.93;;;4.05;;
65936;SDS011;52707;52.086;5.418;2023-02-27T07:39:30;11.52;;;3.50;;
65936;SDS011;52707;52.086;5.418;2023-02-27T07:41:56;14.70;;;3.08;;
65936;SDS011;52707;52.086;5.418;2023-02-27T07:44:22;12.10;;;3.33;;
65936;SDS011;52707;52.086;5.418;2023-02-27T07:46:48;13.70;;;3.50;;
65936;SDS011;52707;52.086;5.418;2023-02-27T07:49:15;7.57;;;2.92;;
65936;SDS011;52707;52.086;5.418;2023-02-27T07:51:41;9.23;;;2.85;;
65936;SDS011;52707;52.086;5.418;2023-02-27T07:54:08;7.45;;;2.60;;
65936;SDS011;52707;52.086;5.418;2023-02-27T07:56:35;14.13;;;3.30;;
65936;SDS011;52707;52.086;5.418;2023-02-27T07:59:01;17.13;;;3.28;;
65936;SDS011;52707;52.086;5.418;2023-02-27T08:01:27;8.85;;;2.65;;
65936;SDS011;52707;52.086;5.418;2023-02-27T08:03:54;7.20;;;3.03;;
65936;SDS011;52707;52.086;5.418;2023-02-27T08:06:21;14.93;;;3.08;;
65936;SDS011;52707;52.086;5.418;2023-02-27T08:08:48;8.60;;;3.05;;
65936;SDS011;52707;52.086;5.418;2023-02-27T08:11:15;10.63;;;3.05;;
65936;SDS011;52707;52.086;5.418;2023-02-27T08:13:41;9.07;;;2.78;;
65936;SDS011;52707;52.086;5.418;2023-02-27T08:16:26;10.70;;;2.80;;
65936;SDS011;52707;52.086;5.418;2023-02-27T08:18:53;9.45;;;2.83;;
65936;SDS011;52707;52.086;5.418;2023-02-27T08:21:19;7.18;;;2.42;;
65936;SDS011;52707;52.086;5.418;2023-02-27T08:23:45;9.15;;;2.63;;
65936;SDS011;52707;52.086;5.418;2023-02-27T08:26:12;10.98;;;2.80;;
65936;SDS011;52707;52.086;5.418;2023-02-27T08:28:38;6.40;;;2.47;;
65936;SDS011;52707;52.086;5.418;2023-02-27T08:31:05;12.82;;;2.28;;
65936;SDS011;52707;52.086;5.418;2023-02-27T08:33:32;10.70;;;3.08;;
65936;SDS011;52707;52.086;5.418;2023-02-27T08:35:59;11.18;;;2.97;;
65936;SDS011;52707;52.086;5.418;2023-02-27T08:38:25;10.02;;;2.58;;
65936;SDS011;52707;52.086;5.418;2023-02-27T08:40:51;6.75;;;2.58;;
65936;SDS011;52707;52.086;5.418;2023-02-27T08:43:21;11.80;;;2.75;;
65936;SDS011;52707;52.086;5.418;2023-02-27T08:45:48;9.38;;;2.63;;
65936;SDS011;52707;52.086;5.418;2023-02-27T08:48:15;11.95;;;2.88;;
65936;SDS011;52707;52.086;5.418;2023-02-27T08:50:42;8.25;;;2.78;;
65936;SDS011;52707;52.086;5.418;2023-02-27T08:53:09;8.70;;;2.75;;
65936;SDS011;52707;52.086;5.418;2023-02-27T08:55:36;6.45;;;2.45;;
65936;SDS011;52707;52.086;5.418;2023-02-27T08:58:02;8.10;;;2.70;;
65936;SDS011;52707;52.086;5.418;2023-02-27T09:00:28;7.75;;;2.97;;
65936;SDS011;52707;52.086;5.418;2023-02-27T09:02:56;10.20;;;2.40;;
65936;SDS011;52707;52.086;5.418;2023-02-27T09:05:22;9.68;;;2.20;;
65936;SDS011;52707;52.086;5.418;2023-02-27T09:07:48;4.93;;;1.83;;
65936;SDS011;52707;52.086;5.418;2023-02-27T09:10:15;5.63;;;2.10;;
65936;SDS011;52707;52.086;5.418;2023-02-27T09:12:42;10.68;;;2.60;;
65936;SDS011;52707;52.086;5.418;2023-02-27T09:15:09;6.35;;;2.20;;
65936;SDS011;52707;52.086;5.418;2023-02-27T09:17:36;7.72;;;2.25;;
65936;SDS011;52707;52.086;5.418;2023-02-27T09:20:03;10.00;;;2.40;;
65936;SDS011;52707;52.086;5.418;2023-02-27T09:22:30;6.75;;;2.08;;
65936;SDS011;52707;52.086;5.418;2023-02-27T09:24:56;6.60;;;1.92;;
65936;SDS011;52707;52.086;5.418;2023-02-27T09:27:22;17.30;;;2.60;;
65936;SDS011;52707;52.086;5.418;2023-02-27T09:29:49;7.47;;;2.30;;
65936;SDS011;52707;52.086;5.418;2023-02-27T09:32:21;7.20;;;2.08;;
65936;SDS011;52707;52.086;5.418;2023-02-27T09:34:47;9.38;;;2.03;;
65936;SDS011;52707;52.086;5.418;2023-02-27T09:37:14;5.75;;;2.00;;
65936;SDS011;52707;52.086;5.418;2023-02-27T09:39:41;10.05;;;1.98;;
65936;SDS011;52707;52.086;5.418;2023-02-27T09:42:14;6.13;;;1.70;;
65936;SDS011;52707;52.086;5.418;2023-02-27T09:44:43;12.43;;;2.63;;
65936;SDS011;52707;52.086;5.418;2023-02-27T09:47:14;4.03;;;1.50;;
65936;SDS011;52707;52.086;5.418;2023-02-27T09:49:54;9.68;;;1.50;;
65936;SDS011;52707;52.086;5.418;2023-02-27T09:52:21;6.60;;;1.25;;
65936;SDS011;52707;52.086;5.418;2023-02-27T09:54:47;6.88;;;1.48;;
65936;SDS011;52707;52.086;5.418;2023-02-27T09:57:14;10.70;;;2.05;;
65936;SDS011;52707;52.086;5.418;2023-02-27T09:59:43;7.63;;;1.60;;
65936;SDS011;52707;52.086;5.418;2023-02-27T10:05:39;6.57;;;1.70;;
65936;SDS011;52707;52.086;5.418;2023-02-27T10:18:10;3.63;;;1.27;;
65936;SDS011;52707;52.086;5.418;2023-02-27T10:20:55;8.23;;;1.10;;
65936;SDS011;52707;52.086;5.418;2023-02-27T10:23:34;5.45;;;1.00;;
65936;SDS011;52707;52.086;5.418;2023-02-27T10:26:04;3.90;;;1.83;;
65936;SDS011;52707;52.086;5.418;2023-02-27T10:28:30;2.35;;;0.90;;
65936;SDS011;52707;52.086;5.418;2023-02-27T10:30:58;2.13;;;1.00;;
65936;SDS011;52707;52.086;5.418;2023-02-27T10:33:33;3.67;;;0.93;;
65936;SDS011;52707;52.086;5.418;2023-02-27T10:36:00;5.13;;;1.30;;
65936;SDS011;52707;52.086;5.418;2023-02-27T10:38:32;3.13;;;0.85;;
65936;SDS011;52707;52.086;5.418;2023-02-27T10:41:00;6.72;;;1.35;;
65936;SDS011;52707;52.086;5.418;2023-02-27T10:43:26;4.55;;;1.15;;
65936;SDS011;52707;52.086;5.418;2023-02-27T10:45:53;3.28;;;1.40;;
65936;SDS011;52707;52.086;5.418;2023-02-27T10:48:19;4.10;;;0.85;;
65936;SDS011;52707;52.086;5.418;2023-02-27T10:50:46;3.72;;;1.48;;
65936;SDS011;52707;52.086;5.418;2023-02-27T10:53:21;2.40;;;0.95;;
65936;SDS011;52707;52.086;5.418;2023-02-27T10:58:19;7.47;;;1.20;;
65936;SDS011;52707;52.086;5.418;2023-02-27T11:00:55;6.05;;;1.35;;
65936;SDS011;52707;52.086;5.418;2023-02-27T11:03:23;3.45;;;1.00;;
65936;SDS011;52707;52.086;5.418;2023-02-27T11:05:52;1.98;;;0.80;;
65936;SDS011;52707;52.086;5.418;2023-02-27T11:08:23;2.78;;;0.85;;
65936;SDS011;52707;52.086;5.418;2023-02-27T11:11:09;3.40;;;1.00;;
65936;SDS011;52707;52.086;5.418;2023-02-27T11:13:36;2.70;;;0.90;;
65936;SDS011;52707;52.086;5.418;2023-02-27T11:18:33;1.95;;;0.95;;
65936;SDS011;52707;52.086;5.418;2023-02-27T11:26:24;2.65;;;0.90;;
65936;SDS011;52707;52.086;5.418;2023-02-27T11:31:43;5.20;;;1.27;;
65936;SDS011;52707;52.086;5.418;2023-02-27T11:34:16;2.20;;;0.95;;
65936;SDS011;52707;52.086;5.418;2023-02-27T11:36:46;1.23;;;0.73;;
65936;SDS011;52707;52.086;5.418;2023-02-27T11:39:57;2.17;;;0.82;;
65936;SDS011;52707;52.086;5.418;2023-02-27T11:42:17;2.30;;;0.70;;
65936;SDS011;52707;52.086;5.418;2023-02-27T11:44:50;2.00;;;0.80;;
65936;SDS011;52707;52.086;5.418;2023-02-27T11:47:19;0.75;;;0.47;;
65936;SDS011;52707;52.086;5.418;2023-02-27T11:52:15;1.83;;;0.90;;
65936;SDS011;52707;52.086;5.418;2023-02-27T11:54:48;2.72;;;0.88;;
65936;SDS011;52707;52.086;5.418;2023-02-27T11:59:48;2.22;;;0.73;;
65936;SDS011;52707;52.086;5.418;2023-02-27T12:02:17;2.17;;;0.70;;
65936;SDS011;52707;52.086;5.418;2023-02-27T12:04:59;2.28;;;0.60;;
65936;SDS011;52707;52.086;5.418;2023-02-27T12:07:28;2.53;;;0.93;;
65936;SDS011;52707;52.086;5.418;2023-02-27T12:10:03;1.58;;;0.80;;
65936;SDS011;52707;52.086;5.418;2023-02-27T12:12:32;1.50;;;0.90;;
65936;SDS011;52707;52.086;5.418;2023-02-27T12:17:46;1.50;;;0.80;;
65936;SDS011;52707;52.086;5.418;2023-02-27T12:22:47;2.55;;;0.60;;
65936;SDS011;52707;52.086;5.418;2023-02-27T12:30:55;3.72;;;0.70;;
65936;SDS011;52707;52.086;5.418;2023-02-27T12:33:31;4.10;;;1.05;;
65936;SDS011;52707;52.086;5.418;2023-02-27T12:36:01;2.70;;;0.98;;
65936;SDS011;52707;52.086;5.418;2023-02-27T12:38:28;4.32;;;0.70;;
65936;SDS011;52707;52.086;5.418;2023-02-27T12:40:59;2.20;;;0.70;;
65936;SDS011;52707;52.086;5.418;2023-02-27T12:46:01;3.80;;;0.55;;
65936;SDS011;52707;52.086;5.418;2023-02-27T12:48:43;0.60;;;0.60;;
65936;SDS011;52707;52.086;5.418;2023-02-27T12:56:12;0.82;;;0.60;;
65936;SDS011;52707;52.086;5.418;2023-02-27T13:04:09;1.75;;;0.85;;
65936;SDS011;52707;52.086;5.418;2023-02-27T13:06:42;2.40;;;1.00;;
65936;SDS011;52707;52.086;5.418;2023-02-27T13:09:16;4.88;;;1.02;;
65936;SDS011;52707;52.086;5.418;2023-02-27T13:12:02;2.40;;;0.98;;
65936;SDS011;52707;52.086;5.418;2023-02-27T13:17:03;1.80;;;0.90;;
65936;SDS011;52707;52.086;5.418;2023-02-27T13:19:35;1.70;;;0.90;;
65936;SDS011;52707;52.086;5.418;2023-02-27T13:22:14;6.22;;;1.10;;
65936;SDS011;52707;52.086;5.418;2023-02-27T13:24:45;2.17;;;0.93;;
65936;SDS011;52707;52.086;5.418;2023-02-27T13:29:45;2.78;;;1.00;;
65936;SDS011;52707;52.086;5.418;2023-02-27T13:35:20;3.08;;;1.02;;
65936;SDS011;52707;52.086;5.418;2023-02-27T13:37:55;6.63;;;1.05;;
65936;SDS011;52707;52.086;5.418;2023-02-27T13:40:32;6.03;;;1.40;;
65936;SDS011;52707;52.086;5.418;2023-02-27T13:43:00;3.70;;;1.17;;
65936;SDS011;52707;52.086;5.418;2023-02-27T13:45:46;2.75;;;1.00;;
65936;SDS011;52707;52.086;5.418;2023-02-27T13:48:35;4.78;;;1.17;;
65936;SDS011;52707;52.086;5.418;2023-02-27T13:51:00;3.00;;;1.08;;
65936;SDS011;52707;52.086;5.418;2023-02-27T13:53:27;2.58;;;1.00;;
65936;SDS011;52707;52.086;5.418;2023-02-27T13:56:27;2.58;;;0.82;;
65936;SDS011;52707;52.086;5.418;2023-02-27T13:58:47;2.70;;;1.13;;
65936;SDS011;52707;52.086;5.418;2023-02-27T14:01:17;2.80;;;0.80;;
65936;SDS011;52707;52.086;5.418;2023-02-27T14:03:53;4.45;;;1.38;;
65936;SDS011;52707;52.086;5.418;2023-02-27T14:06:22;4.00;;;1.10;;
65936;SDS011;52707;52.086;5.418;2023-02-27T14:08:49;5.68;;;1.00;;
65936;SDS011;52707;52.086;5.418;2023-02-27T14:11:18;3.88;;;1.00;;
65936;SDS011;52707;52.086;5.418;2023-02-27T14:16:12;4.68;;;1.13;;
65936;SDS011;52707;52.086;5.418;2023-02-27T14:18:58;1.80;;;0.80;;
65936;SDS011;52707;52.086;5.418;2023-02-27T14:24:12;2.80;;;0.95;;
65936;SDS011;52707;52.086;5.418;2023-02-27T14:26:40;3.25;;;1.02;;
65936;SDS011;52707;52.086;5.418;2023-02-27T14:29:11;4.25;;;1.45;;
65936;SDS011;52707;52.086;5.418;2023-02-27T14:31:39;3.08;;;0.90;;
65936;SDS011;52707;52.086;5.418;2023-02-27T14:34:05;4.30;;;0.98;;
65936;SDS011;52707;52.086;5.418;2023-02-27T14:36:55;2.38;;;1.15;;
65936;SDS011;52707;52.086;5.418;2023-02-27T14:39:32;6.43;;;1.42;;
65936;SDS011;52707;52.086;5.418;2023-02-27T14:42:02;3.88;;;1.17;;
65936;SDS011;52707;52.086;5.418;2023-02-27T14:44:40;5.97;;;0.95;;
65936;SDS011;52707;52.086;5.418;2023-02-27T14:49:53;3.65;;;1.40;;
65936;SDS011;52707;52.086;5.418;2023-02-27T14:52:25;3.30;;;1.20;;
65936;SDS011;52707;52.086;5.418;2023-02-27T14:54:51;2.83;;;1.40;;
65936;SDS011;52707;52.086;5.418;2023-02-27T14:57:22;1.67;;;1.30;;
65936;SDS011;52707;52.086;5.418;2023-02-27T14:59:50;2.85;;;1.75;;
65936;SDS011;52707;52.086;5.418;2023-02-27T15:02:27;5.10;;;1.70;;
65936;SDS011;52707;52.086;5.418;2023-02-27T15:04:55;2.72;;;1.42;;
65936;SDS011;52707;52.086;5.418;2023-02-27T15:07:38;6.10;;;1.25;;
65936;SDS011;52707;52.086;5.418;2023-02-27T15:10:07;3.90;;;1.58;;
65936;SDS011;52707;52.086;5.418;2023-02-27T15:12:37;2.00;;;1.00;;
65936;SDS011;52707;52.086;5.418;2023-02-27T15:15:04;4.05;;;1.27;;
65936;SDS011;52707;52.086;5.418;2023-02-27T15:17:39;5.93;;;0.93;;
65936;SDS011;52707;52.086;5.418;2023-02-27T15:22:51;2.95;;;1.05;;
65936;SDS011;52707;52.086;5.418;2023-02-27T15:25:33;2.20;;;0.80;;
65936;SDS011;52707;52.086;5.418;2023-02-27T15:28:03;7.40;;;1.17;;
65936;SDS011;52707;52.086;5.418;2023-02-27T15:30:30;4.43;;;1.30;;
65936;SDS011;52707;52.086;5.418;2023-02-27T15:32:56;3.53;;;1.25;;
65936;SDS011;52707;52.086;5.418;2023-02-27T15:35:24;3.75;;;1.27;;
65936;SDS011;52707;52.086;5.418;2023-02-27T15:37:54;7.90;;;1.70;;
65936;SDS011;52707;52.086;5.418;2023-02-27T15:40:21;2.80;;;1.25;;
65936;SDS011;52707;52.086;5.418;2023-02-27T15:42:49;7.22;;;1.42;;
65936;SDS011;52707;52.086;5.418;2023-02-27T15:45:16;4.72;;;1.35;;
65936;SDS011;52707;52.086;5.418;2023-02-27T15:47:45;6.80;;;1.60;;
65936;SDS011;52707;52.086;5.418;2023-02-27T15:52:42;9.88;;;1.58;;
65936;SDS011;52707;52.086;5.418;2023-02-27T15:55:12;2.53;;;1.27;;
65936;SDS011;52707;52.086;5.418;2023-02-27T15:57:38;5.28;;;1.40;;
65936;SDS011;52707;52.086;5.418;2023-02-27T16:00:13;2.83;;;1.30;;
65936;SDS011;52707;52.086;5.418;2023-02-27T16:02:43;3.50;;;1.08;;
65936;SDS011;52707;52.086;5.418;2023-02-27T16:05:17;2.88;;;1.35;;
65936;SDS011;52707;52.086;5.418;2023-02-27T16:07:44;3.55;;;1.40;;
65936;SDS011;52707;52.086;5.418;2023-02-27T16:10:24;4.32;;;1.17;;
65936;SDS011;52707;52.086;5.418;2023-02-27T16:12:52;4.35;;;1.20;;
65936;SDS011;52707;52.086;5.418;2023-02-27T16:17:55;1.92;;;1.17;;
65936;SDS011;52707;52.086;5.418;2023-02-27T16:23:05;4.18;;;1.20;;
65936;SDS011;52707;52.086;5.418;2023-02-27T16:25:31;3.53;;;1.40;;
65936;SDS011;52707;52.086;5.418;2023-02-27T16:27:57;3.22;;;1.50;;
65936;SDS011;52707;52.086;5.418;2023-02-27T16:30:24;5.15;;;1.20;;
65936;SDS011;52707;52.086;5.418;2023-02-27T16:32:55;6.72;;;1.48;;
65936;SDS011;52707;52.086;5.418;2023-02-27T16:35:23;1.73;;;1.20;;
65936;SDS011;52707;52.086;5.418;2023-02-27T16:37:50;3.30;;;1.20;;
65936;SDS011;52707;52.086;5.418;2023-02-27T16:40:20;3.35;;;1.00;;
65936;SDS011;52707;52.086;5.418;2023-02-27T16:42:50;2.65;;;1.23;;
65936;SDS011;52707;52.086;5.418;2023-02-27T16:45:20;1.85;;;1.10;;
65936;SDS011;52707;52.086;5.418;2023-02-27T16:47:48;2.45;;;1.10;;
65936;SDS011;52707;52.086;5.418;2023-02-27T16:50:22;2.45;;;1.10;;
65936;SDS011;52707;52.086;5.418;2023-02-27T16:52:49;4.78;;;1.17;;
65936;SDS011;52707;52.086;5.418;2023-02-27T16:55:15;1.00;;;0.82;;
65936;SDS011;52707;52.086;5.418;2023-02-27T16:57:42;2.83;;;0.88;;
65936;SDS011;52707;52.086;5.418;2023-02-27T17:00:12;4.35;;;0.90;;
65936;SDS011;52707;52.086;5.418;2023-02-27T17:02:39;2.20;;;1.45;;
65936;SDS011;52707;52.086;5.418;2023-02-27T17:05:05;1.55;;;0.88;;
65936;SDS011;52707;52.086;5.418;2023-02-27T17:07:32;1.58;;;1.00;;
65936;SDS011;52707;52.086;5.418;2023-02-27T17:09:58;2.88;;;1.02;;
65936;SDS011;52707;52.086;5.418;2023-02-27T17:12:27;2.55;;;1.00;;
65936;SDS011;52707;52.086;5.418;2023-02-27T17:14:53;2.80;;;1.23;;
65936;SDS011;52707;52.086;5.418;2023-02-27T17:17:21;1.25;;;0.90;;
65936;SDS011;52707;52.086;5.418;2023-02-27T17:19:47;2.17;;;1.05;;